Time;durP1;ratioP1;P1;durP2;ratioP2;P2;SDS_P1;SDS_P2;PMS_P1;PMS_P2;Temp;Humidity;BMP_temperature;BMP_pressure;BME280_temperature;BME280_humidity;BME280_pressure;Samples;Min_cycle;Max_cycle;Signal;HPM_P1;HPM_P2
2022/07/09 00:00:07;;;;;;;1.33;0.40;;;21.70;63.60;;;;;;5010021;28;20036;-73
2022/07/09 00:02:34;;;;;;;1.70;0.50;;;21.50;63.90;;;;;;5009621;28;20045;-73
2022/07/09 00:05:00;;;;;;;1.25;0.57;;;21.50;64.00;;;;;;5011285;28;20507;-73
2022/07/09 00:07:26;;;;;;;3.80;0.70;;;21.40;64.20;;;;;;5009194;28;20038;-73
2022/07/09 00:09:52;;;;;;;1.80;0.50;;;21.30;64.60;;;;;;5010891;28;20069;-73
2022/07/09 00:12:18;;;;;;;0.35;0.32;;;21.20;64.60;;;;;;5010744;28;20480;-74
2022/07/09 00:14:44;;;;;;;4.80;1.15;;;21.20;64.80;;;;;;5009281;28;20087;-74
2022/07/09 00:17:09;;;;;;;3.08;0.50;;;21.20;65.00;;;;;;5011570;28;20033;-73
2022/07/09 00:19:35;;;;;;;1.02;0.50;;;21.20;64.80;;;;;;5009861;28;20466;-74
2022/07/09 00:22:01;;;;;;;1.77;0.75;;;21.10;65.10;;;;;;5011090;28;20539;-73
2022/07/09 00:24:26;;;;;;;2.47;0.68;;;21.00;65.30;;;;;;5008858;28;20050;-71
2022/07/09 00:26:52;;;;;;;1.88;1.17;;;20.90;65.50;;;;;;5009914;28;20392;-71
2022/07/09 00:29:18;;;;;;;3.35;0.85;;;21.10;65.20;;;;;;5011282;28;20034;-74
2022/07/09 00:31:45;;;;;;;2.17;0.70;;;21.00;65.40;;;;;;5009541;28;20034;-73
2022/07/09 00:34:12;;;;;;;2.20;1.05;;;21.10;65.20;;;;;;5011584;28;20119;-73
2022/07/09 00:36:38;;;;;;;1.58;0.60;;;21.00;65.60;;;;;;5010763;28;20053;-73
2022/07/09 00:39:04;;;;;;;0.98;0.40;;;21.10;65.30;;;;;;5010027;28;20381;-73
2022/07/09 00:41:29;;;;;;;2.30;1.35;;;21.00;65.70;;;;;;5011921;28;20068;-73
2022/07/09 00:43:55;;;;;;;1.75;0.60;;;20.70;66.40;;;;;;5010954;28;20125;-71
2022/07/09 00:46:21;;;;;;;0.98;0.55;;;20.90;65.90;;;;;;5010350;28;20484;-73
2022/07/09 00:48:47;;;;;;;0.77;0.35;;;21.00;65.90;;;;;;5008594;28;20396;-71
2022/07/09 00:51:14;;;;;;;3.47;0.32;;;20.80;66.00;;;;;;5011401;28;20042;-71
2022/07/09 00:53:40;;;;;;;1.02;0.50;;;20.60;66.20;;;;;;5003207;28;20041;-71
2022/07/09 00:56:07;;;;;;;1.38;0.43;;;20.60;66.10;;;;;;5010484;28;20080;-73
2022/07/09 00:58:34;;;;;;;1.75;0.60;;;20.30;66.90;;;;;;5011114;28;20477;-71
2022/07/09 01:01:01;;;;;;;1.90;0.70;;;20.30;66.80;;;;;;5010736;28;20065;-71
2022/07/09 01:03:27;;;;;;;1.02;0.43;;;20.00;67.20;;;;;;5010024;28;20038;-71
2022/07/09 01:05:53;;;;;;;1.30;0.60;;;20.10;67.20;;;;;;5011478;28;20041;-73
2022/07/09 01:08:19;;;;;;;1.08;0.50;;;20.20;66.90;;;;;;5008154;28;20109;-71
2022/07/09 01:10:45;;;;;;;2.92;0.73;;;20.20;66.90;;;;;;5011065;28;20088;-73
2022/07/09 01:13:11;;;;;;;2.00;0.40;;;19.80;67.50;;;;;;5009245;28;20136;-74
2022/07/09 01:15:37;;;;;;;3.05;0.50;;;19.70;68.00;;;;;;5010072;28;20113;-73
2022/07/09 01:18:03;;;;;;;2.72;0.45;;;19.70;67.80;;;;;;5008928;28;20124;-72
2022/07/09 01:20:29;;;;;;;0.73;0.30;;;19.60;68.10;;;;;;5011453;28;20034;-73
2022/07/09 01:22:55;;;;;;;1.02;0.50;;;19.80;67.70;;;;;;5008636;28;20517;-72
2022/07/09 01:25:46;;;;;;;1.48;0.60;;;19.60;67.80;;;;;;5009994;28;20076;-73
2022/07/09 01:28:12;;;;;;;1.02;0.32;;;19.60;68.10;;;;;;5006959;28;20125;-73
2022/07/09 01:30:39;;;;;;;0.52;0.32;;;19.20;68.30;;;;;;5011426;28;20026;-72
2022/07/09 01:33:05;;;;;;;1.17;0.50;;;19.30;68.30;;;;;;5010136;28;20464;-73
2022/07/09 01:35:31;;;;;;;1.45;0.93;;;19.40;68.00;;;;;;5010610;28;20069;-73
2022/07/09 01:37:57;;;;;;;3.92;0.40;;;19.50;67.70;;;;;;5010345;28;20033;-73
2022/07/09 01:40:24;;;;;;;1.80;0.52;;;19.40;67.90;;;;;;5010999;28;20080;-73
2022/07/09 01:42:49;;;;;;;1.05;0.60;;;19.30;67.70;;;;;;5009131;28;20061;-73
2022/07/09 01:45:16;;;;;;;1.27;0.68;;;19.30;67.90;;;;;;5015138;28;20041;-73
2022/07/09 01:47:42;;;;;;;2.75;0.60;;;19.40;67.60;;;;;;5010877;28;20037;-73
2022/07/09 01:50:09;;;;;;;3.95;0.50;;;19.30;67.90;;;;;;5014221;28;20428;-73
2022/07/09 01:52:35;;;;;;;0.70;0.40;;;19.40;68.00;;;;;;5011078;28;20080;-74
2022/07/09 01:55:01;;;;;;;1.50;0.90;;;19.40;67.90;;;;;;5013040;28;20034;-73
2022/07/09 01:57:26;;;;;;;0.63;0.30;;;19.20;67.50;;;;;;5014140;28;20442;-73
2022/07/09 01:59:53;;;;;;;1.48;0.45;;;19.00;67.90;;;;;;5013115;28;20098;-73
2022/07/09 02:02:18;;;;;;;0.55;0.40;;;18.90;68.10;;;;;;5014655;28;20495;-73
2022/07/09 02:04:45;;;;;;;2.40;0.50;;;18.90;68.30;;;;;;5012036;28;20033;-72
2022/07/09 02:07:14;;;;;;;1.23;0.50;;;18.70;68.40;;;;;;5014337;28;20112;-73
2022/07/09 02:09:41;;;;;;;0.47;0.30;;;18.80;68.50;;;;;;5009960;28;20160;-72
2022/07/09 02:12:07;;;;;;;1.27;0.45;;;18.80;68.80;;;;;;5012793;28;20045;-73
2022/07/09 02:14:32;;;;;;;1.55;0.63;;;18.60;68.90;;;;;;5012140;28;20026;-73
2022/07/09 02:16:58;;;;;;;1.23;0.40;;;18.30;69.30;;;;;;5013578;28;20049;-73
2022/07/09 02:19:24;;;;;;;1.48;0.47;;;18.50;69.40;;;;;;5013554;28;20026;-73
2022/07/09 02:21:50;;;;;;;1.23;0.50;;;18.40;70.00;;;;;;5014507;28;20107;-73
2022/07/09 02:24:16;;;;;;;1.83;0.50;;;18.50;69.60;;;;;;5011271;28;20483;-73
2022/07/09 02:26:41;;;;;;;1.48;0.60;;;18.60;69.40;;;;;;5014186;28;20088;-70
2022/07/09 02:29:07;;;;;;;1.98;0.70;;;18.90;68.90;;;;;;5012182;28;20738;-73
2022/07/09 02:31:33;;;;;;;2.00;0.70;;;19.10;68.80;;;;;;5007023;28;20477;-73
2022/07/09 02:33:59;;;;;;;2.90;0.57;;;18.90;69.10;;;;;;5011281;28;20041;-73
2022/07/09 02:36:25;;;;;;;1.92;0.60;;;18.60;69.90;;;;;;5014121;28;20030;-73
2022/07/09 02:38:51;;;;;;;0.65;0.43;;;18.40;69.50;;;;;;5012364;28;20025;-73
2022/07/09 02:41:17;;;;;;;2.13;0.80;;;18.40;69.90;;;;;;5011906;28;20484;-73
2022/07/09 02:43:43;;;;;;;1.10;0.52;;;18.30;69.90;;;;;;5012068;28;20033;-73
2022/07/09 02:46:11;;;;;;;2.92;0.55;;;18.20;70.00;;;;;;5013395;28;20124;-74
2022/07/09 02:48:37;;;;;;;1.20;0.50;;;18.10;70.00;;;;;;5012462;28;20037;-73
2022/07/09 02:51:04;;;;;;;5.43;0.77;;;17.90;71.50;;;;;;5013716;28;20034;-73
2022/07/09 02:53:29;;;;;;;1.95;0.50;;;17.90;71.00;;;;;;5003425;28;20037;-74
2022/07/09 02:55:55;;;;;;;3.92;0.77;;;18.10;70.90;;;;;;5010689;28;20026;-74
2022/07/09 02:58:21;;;;;;;3.35;0.55;;;18.10;70.40;;;;;;5011923;28;20030;-74
2022/07/09 03:00:47;;;;;;;0.90;0.70;;;18.10;70.30;;;;;;5011879;28;20029;-73
2022/07/09 03:03:13;;;;;;;1.42;0.55;;;18.20;70.00;;;;;;5008255;28;20037;-74
2022/07/09 03:05:39;;;;;;;1.27;0.65;;;18.30;69.40;;;;;;5007634;28;20026;-73
2022/07/09 03:08:05;;;;;;;2.47;0.60;;;18.20;69.80;;;;;;5008611;28;20566;-72
2022/07/09 03:10:31;;;;;;;1.75;0.77;;;18.10;69.70;;;;;;5008167;28;20030;-72
2022/07/09 03:12:57;;;;;;;1.77;0.80;;;18.10;69.90;;;;;;5006728;28;20131;-72
2022/07/09 03:15:23;;;;;;;2.53;0.73;;;17.90;70.50;;;;;;5007897;28;20065;-72
2022/07/09 03:17:49;;;;;;;1.33;0.70;;;17.90;70.90;;;;;;4983648;28;20465;-72
2022/07/09 03:20:14;;;;;;;0.60;0.40;;;17.60;71.60;;;;;;5005350;28;20049;-72
2022/07/09 03:22:41;;;;;;;3.17;0.60;;;17.80;70.80;;;;;;5004563;28;20044;-72
2022/07/09 03:25:08;;;;;;;1.17;0.40;;;18.20;70.00;;;;;;5005958;28;20105;-73
2022/07/09 03:27:34;;;;;;;0.88;0.47;;;18.10;69.70;;;;;;5006834;28;20030;-72
2022/07/09 03:30:00;;;;;;;1.90;0.50;;;18.40;69.60;;;;;;5006828;28;20025;-72
2022/07/09 03:32:26;;;;;;;1.65;0.55;;;18.20;69.90;;;;;;5005767;28;20072;-72
2022/07/09 03:34:52;;;;;;;8.20;0.70;;;18.10;70.30;;;;;;5009100;28;20037;-72
2022/07/09 03:37:18;;;;;;;2.85;0.85;;;18.00;70.60;;;;;;5006115;28;20034;-72
2022/07/09 03:39:44;;;;;;;3.25;0.68;;;17.50;71.50;;;;;;5007061;28;20034;-72
2022/07/09 03:42:11;;;;;;;4.03;1.17;;;17.40;72.00;;;;;;5006994;28;20041;-72
2022/07/09 03:44:37;;;;;;;1.85;0.52;;;17.40;72.00;;;;;;5006769;28;20111;-73
2022/07/09 03:47:03;;;;;;;2.33;0.80;;;17.40;72.10;;;;;;5004869;28;20105;-73
2022/07/09 03:49:29;;;;;;;1.88;0.68;;;17.60;71.90;;;;;;5003149;28;20093;-73
2022/07/09 03:51:55;;;;;;;1.83;0.68;;;17.70;71.60;;;;;;5006800;28;20034;-72
2022/07/09 03:54:21;;;;;;;0.75;0.20;;;17.90;71.50;;;;;;5005643;28;20030;-72
2022/07/09 03:56:46;;;;;;;2.55;0.73;;;17.70;71.50;;;;;;5004852;28;20095;-72
2022/07/09 03:59:12;;;;;;;2.05;0.40;;;17.60;71.60;;;;;;5003208;28;20030;-72
2022/07/09 04:01:38;;;;;;;1.38;0.55;;;17.70;71.80;;;;;;5005233;28;20030;-72
2022/07/09 04:04:04;;;;;;;1.38;0.77;;;17.60;71.70;;;;;;5003859;28;20108;-73
2022/07/09 04:06:30;;;;;;;2.67;0.50;;;17.70;71.90;;;;;;5003858;28;20049;-72
2022/07/09 04:08:56;;;;;;;1.52;0.68;;;17.60;72.50;;;;;;5001821;28;20104;-72
2022/07/09 04:11:21;;;;;;;6.22;1.05;;;17.70;72.50;;;;;;5003655;28;20029;-72
2022/07/09 04:13:47;;;;;;;4.20;0.57;;;17.60;73.20;;;;;;5003708;28;20049;-72
2022/07/09 04:16:13;;;;;;;4.93;1.38;;;17.60;73.50;;;;;;5003748;28;20026;-72
2022/07/09 04:18:42;;;;;;;3.60;0.70;;;17.70;73.80;;;;;;5004114;28;20034;-72
2022/07/09 04:21:08;;;;;;;3.45;0.85;;;17.80;73.10;;;;;;5001786;28;20029;-72
2022/07/09 04:23:35;;;;;;;1.45;0.60;;;18.00;72.90;;;;;;5002271;28;20038;-72
2022/07/09 04:26:00;;;;;;;2.38;0.60;;;18.10;72.40;;;;;;5004477;28;20088;-72
2022/07/09 04:28:26;;;;;;;1.25;0.63;;;18.20;72.40;;;;;;5002821;28;20038;-72
2022/07/09 04:30:52;;;;;;;9.25;1.10;;;18.40;72.00;;;;;;5002470;28;20038;-72
2022/07/09 04:33:18;;;;;;;2.03;0.80;;;18.30;72.50;;;;;;5003412;28;20084;-72
2022/07/09 04:35:45;;;;;;;1.55;0.77;;;18.40;72.30;;;;;;5002205;28;20038;-72
2022/07/09 04:38:12;;;;;;;2.00;0.70;;;18.40;73.00;;;;;;5004227;28;20048;-72
2022/07/09 04:40:39;;;;;;;2.05;0.70;;;18.20;72.50;;;;;;5002899;28;20385;-72
2022/07/09 04:43:05;;;;;;;2.00;0.80;;;18.20;72.70;;;;;;5002794;28;20037;-72
2022/07/09 04:45:32;;;;;;;2.35;0.90;;;18.10;72.90;;;;;;5002522;28;20065;-73
2022/07/09 04:47:58;;;;;;;2.55;0.70;;;18.10;73.20;;;;;;5004436;28;20132;-72
2022/07/09 04:50:25;;;;;;;2.42;0.80;;;17.90;74.20;;;;;;4999706;28;20041;-72
2022/07/09 04:52:51;;;;;;;1.70;0.60;;;17.60;75.10;;;;;;5003596;28;20535;-72
2022/07/09 04:55:16;;;;;;;2.03;0.60;;;17.60;74.30;;;;;;5005100;28;20038;-72
2022/07/09 04:57:43;;;;;;;1.42;0.63;;;17.50;74.80;;;;;;5007154;28;20056;-73
2022/07/09 05:00:10;;;;;;;3.45;0.75;;;17.60;74.70;;;;;;5006066;28;20034;-72
2022/07/09 05:02:36;;;;;;;3.30;0.73;;;17.40;75.10;;;;;;5005514;28;20353;-72
2022/07/09 05:05:03;;;;;;;1.73;0.70;;;17.70;74.70;;;;;;5006094;28;20065;-72
2022/07/09 05:07:30;;;;;;;2.25;0.60;;;17.40;75.30;;;;;;5006826;28;20033;-72
2022/07/09 05:09:56;;;;;;;1.38;0.60;;;17.50;74.70;;;;;;4988412;28;20454;-72
2022/07/09 05:12:22;;;;;;;2.22;1.08;;;17.20;75.60;;;;;;5007146;28;20030;-72
2022/07/09 05:14:48;;;;;;;1.45;0.88;;;17.10;76.20;;;;;;5012472;28;20039;-73
2022/07/09 05:17:13;;;;;;;2.85;0.82;;;17.10;76.10;;;;;;5009214;28;20030;-72
2022/07/09 05:19:39;;;;;;;1.88;0.60;;;17.30;75.70;;;;;;5007456;28;20045;-72
2022/07/09 05:22:05;;;;;;;0.95;0.47;;;17.40;75.50;;;;;;5009179;28;20038;-72
2022/07/09 05:24:30;;;;;;;2.55;0.63;;;17.30;75.90;;;;;;5009387;28;20649;-72
2022/07/09 05:26:56;;;;;;;4.38;0.60;;;17.20;76.30;;;;;;5009782;28;20113;-72
2022/07/09 05:29:22;;;;;;;2.20;1.15;;;17.30;75.70;;;;;;5010017;28;20392;-72
2022/07/09 05:31:49;;;;;;;1.77;0.77;;;17.20;76.50;;;;;;5009069;28;20539;-71
2022/07/09 05:34:15;;;;;;;1.08;0.50;;;17.10;77.10;;;;;;5010083;28;20056;-72
2022/07/09 05:36:40;;;;;;;1.00;0.47;;;17.10;77.30;;;;;;5006061;28;20041;-72
2022/07/09 05:39:07;;;;;;;1.17;0.95;;;17.40;76.60;;;;;;5006492;28;20033;-72
2022/07/09 05:41:33;;;;;;;1.42;0.50;;;17.30;77.70;;;;;;5006500;28;20622;-72
2022/07/09 05:43:58;;;;;;;1.10;0.63;;;17.40;77.50;;;;;;5005985;28;20112;-71
2022/07/09 05:46:24;;;;;;;1.50;0.60;;;17.30;77.50;;;;;;5009109;28;20113;-73
2022/07/09 05:48:50;;;;;;;1.48;0.63;;;17.50;76.90;;;;;;5012517;28;20040;-73
2022/07/09 05:51:16;;;;;;;2.60;0.80;;;17.80;76.60;;;;;;5011314;28;20032;-72
2022/07/09 05:53:42;;;;;;;1.30;0.60;;;17.80;76.80;;;;;;5006080;28;20649;-73
2022/07/09 05:56:08;;;;;;;2.92;0.60;;;17.90;76.70;;;;;;5010313;28;20034;-74
2022/07/09 05:58:33;;;;;;;0.90;0.50;;;18.00;76.40;;;;;;5009107;28;20034;-73
2022/07/09 06:00:59;;;;;;;1.02;0.60;;;18.20;75.60;;;;;;5008427;28;20375;-73
2022/07/09 06:03:24;;;;;;;3.47;1.25;;;18.30;76.40;;;;;;5017673;28;20575;-73
2022/07/09 06:05:50;;;;;;;3.97;0.85;;;18.40;76.70;;;;;;5004753;28;20823;-73
2022/07/09 06:08:16;;;;;;;3.47;0.70;;;18.40;77.50;;;;;;5004273;28;20117;-73
2022/07/09 06:10:42;;;;;;;3.47;0.70;;;18.50;78.10;;;;;;5002324;28;20121;-73
2022/07/09 06:13:08;;;;;;;2.33;0.70;;;18.50;78.80;;;;;;5004581;28;20073;-73
2022/07/09 06:15:33;;;;;;;1.90;0.63;;;18.50;79.10;;;;;;5003810;28;20068;-74
2022/07/09 06:17:59;;;;;;;2.67;0.93;;;18.50;77.50;;;;;;5002366;28;20061;-73
2022/07/09 06:20:24;;;;;;;1.73;0.80;;;18.60;76.70;;;;;;5005671;28;20037;-73
2022/07/09 06:22:50;;;;;;;1.63;0.70;;;18.70;77.50;;;;;;5002182;28;20045;-74
2022/07/09 06:25:16;;;;;;;2.00;0.90;;;18.70;77.40;;;;;;5005118;28;20436;-74
2022/07/09 06:27:42;;;;;;;2.30;0.80;;;18.80;78.10;;;;;;5004421;28;20026;-73
2022/07/09 06:30:08;;;;;;;3.13;0.70;;;18.80;76.60;;;;;;5003025;28;20025;-71
2022/07/09 06:32:34;;;;;;;2.85;0.70;;;18.90;75.80;;;;;;5001923;28;20030;-72
2022/07/09 06:35:00;;;;;;;8.23;1.45;;;19.00;76.10;;;;;;5002886;28;20029;-73
2022/07/09 06:37:26;;;;;;;4.30;0.98;;;19.00;77.20;;;;;;5003429;28;20431;-73
2022/07/09 06:39:55;;;;;;;4.53;1.48;;;19.00;77.40;;;;;;5003270;28;20038;-73
2022/07/09 06:42:21;;;;;;;2.15;0.90;;;19.10;76.60;;;;;;4999773;28;20022;-73
2022/07/09 06:44:47;;;;;;;1.85;0.73;;;19.20;76.10;;;;;;5004486;28;20030;-72
2022/07/09 06:47:13;;;;;;;3.95;0.63;;;19.30;76.00;;;;;;5001742;28;20037;-73
2022/07/09 06:49:39;;;;;;;5.68;1.00;;;19.30;76.60;;;;;;5005980;28;20036;-73
2022/07/09 06:52:05;;;;;;;2.00;0.65;;;19.30;75.30;;;;;;5002169;28;20030;-72
2022/07/09 06:54:31;;;;;;;2.13;0.82;;;19.40;73.20;;;;;;5006247;28;20044;-72
2022/07/09 06:56:57;;;;;;;1.63;0.70;;;19.60;73.00;;;;;;5008711;28;20041;-72
2022/07/09 06:59:23;;;;;;;1.08;0.57;;;19.70;73.20;;;;;;5007207;28;20682;-73
2022/07/09 07:01:50;;;;;;;0.88;0.57;;;19.90;73.10;;;;;;5005229;28;20037;-72
2022/07/09 07:04:16;;;;;;;2.65;0.82;;;20.10;72.90;;;;;;5006255;28;20029;-72
2022/07/09 07:06:42;;;;;;;4.07;1.10;;;20.30;72.60;;;;;;5007087;28;20565;-72
2022/07/09 07:09:08;;;;;;;1.70;0.73;;;20.60;72.60;;;;;;5007717;28;20025;-72
2022/07/09 07:11:35;;;;;;;1.35;0.77;;;20.80;71.90;;;;;;5009047;28;20117;-72
2022/07/09 07:14:01;;;;;;;2.58;1.10;;;21.00;71.80;;;;;;5003653;28;20042;-73
2022/07/09 07:16:26;;;;;;;1.70;0.82;;;21.30;71.50;;;;;;5008864;28;20044;-72
2022/07/09 07:18:53;;;;;;;3.63;0.82;;;21.70;71.00;;;;;;5005905;28;20465;-73
2022/07/09 07:21:18;;;;;;;1.73;0.80;;;21.90;70.30;;;;;;5006222;28;20109;-72
2022/07/09 07:23:44;;;;;;;4.93;1.05;;;22.10;69.90;;;;;;5008353;28;20207;-72
2022/07/09 07:26:10;;;;;;;1.10;0.80;;;22.40;69.90;;;;;;5004673;28;20134;-73
2022/07/09 07:28:36;;;;;;;0.93;0.65;;;22.60;70.10;;;;;;5008325;28;20615;-72
2022/07/09 07:31:02;;;;;;;2.42;1.17;;;22.70;70.70;;;;;;5006549;28;20461;-72
2022/07/09 07:33:27;;;;;;;2.58;0.88;;;23.30;70.40;;;;;;5007296;28;20119;-73
2022/07/09 07:35:53;;;;;;;2.00;1.10;;;24.10;70.30;;;;;;5005148;28;20077;-73
2022/07/09 07:38:19;;;;;;;1.45;0.70;;;24.90;68.40;;;;;;5002555;28;20075;-73
2022/07/09 07:40:44;;;;;;;1.63;0.77;;;25.80;65.90;;;;;;5003632;28;20041;-73
2022/07/09 07:43:13;;;;;;;1.75;0.95;;;26.50;64.20;;;;;;5010680;28;20064;-73
2022/07/09 07:45:39;;;;;;;2.83;0.90;;;27.30;63.40;;;;;;5008353;28;20146;-73
2022/07/09 07:48:05;;;;;;;1.55;0.75;;;28.50;62.50;;;;;;5008217;28;20034;-73
2022/07/09 07:50:32;;;;;;;3.05;0.90;;;28.40;62.30;;;;;;5008099;28;20029;-73
2022/07/09 07:52:58;;;;;;;1.70;0.70;;;28.50;63.00;;;;;;5006439;28;20396;-73
2022/07/09 07:55:24;;;;;;;3.60;0.98;;;28.40;62.80;;;;;;5007399;28;20026;-73
2022/07/09 07:57:50;;;;;;;3.03;1.27;;;27.80;62.20;;;;;;5005622;28;20032;-73
2022/07/09 08:00:16;;;;;;;4.07;0.98;;;27.60;62.90;;;;;;5006227;28;20120;-73
2022/07/09 08:02:41;;;;;;;2.00;0.85;;;26.90;64.30;;;;;;5006685;28;20042;-72
2022/07/09 08:05:07;;;;;;;3.08;0.80;;;26.70;65.40;;;;;;5011964;28;20029;-73
2022/07/09 08:07:33;;;;;;;3.65;1.70;;;26.70;65.60;;;;;;5021224;28;20045;-73
2022/07/09 08:09:59;;;;;;;2.45;0.85;;;26.40;64.40;;;;;;5006199;28;20034;-72
2022/07/09 08:12:24;;;;;;;1.02;0.60;;;25.80;65.10;;;;;;5006715;28;20500;-72
2022/07/09 08:14:50;;;;;;;2.67;1.02;;;25.70;65.10;;;;;;5008287;28;20128;-73
2022/07/09 08:17:16;;;;;;;1.27;0.60;;;25.80;66.60;;;;;;5006911;28;20033;-73
2022/07/09 08:19:42;;;;;;;2.75;0.77;;;26.00;67.20;;;;;;5002198;28;20147;-72
2022/07/09 08:22:07;;;;;;;3.45;0.98;;;26.10;66.50;;;;;;5006548;28;20028;-72
2022/07/09 08:24:33;;;;;;;2.67;0.90;;;25.90;65.30;;;;;;5003775;28;20044;-73
2022/07/09 08:26:59;;;;;;;3.20;0.85;;;25.30;65.80;;;;;;5004867;28;20030;-73
2022/07/09 08:29:25;;;;;;;1.55;0.70;;;25.10;65.50;;;;;;5006579;28;20026;-72
2022/07/09 08:31:51;;;;;;;2.70;0.60;;;25.50;66.60;;;;;;5004555;28;20049;-72
2022/07/09 08:34:17;;;;;;;2.65;0.80;;;25.50;65.40;;;;;;5007284;28;20038;-72
2022/07/09 08:36:44;;;;;;;2.72;0.57;;;25.70;67.10;;;;;;5006188;28;20060;-72
2022/07/09 08:39:10;;;;;;;0.95;0.70;;;25.70;65.70;;;;;;5005175;28;20436;-71
2022/07/09 08:41:35;;;;;;;6.32;0.90;;;25.60;65.60;;;;;;5005578;28;20041;-72
2022/07/09 08:44:04;;;;;;;1.08;0.50;;;25.30;65.60;;;;;;5003689;28;20029;-72
2022/07/09 08:46:31;;;;;;;1.58;0.85;;;25.60;64.70;;;;;;5011212;28;20125;-73
2022/07/09 08:49:00;;;;;;;1.30;0.60;;;25.60;64.30;;;;;;5006390;28;20396;-72
2022/07/09 08:51:26;;;;;;;1.98;0.70;;;25.40;63.20;;;;;;5007274;28;20030;-72
2022/07/09 08:53:57;;;;;;;1.95;0.60;;;25.70;66.30;;;;;;5007004;28;20100;-72
2022/07/09 08:56:22;;;;;;;1.90;0.75;;;26.10;65.80;;;;;;5016813;28;20128;-72
2022/07/09 08:58:48;;;;;;;2.03;0.70;;;26.10;64.10;;;;;;5006325;28;20129;-72
2022/07/09 09:01:15;;;;;;;2.05;0.52;;;26.10;66.30;;;;;;5015343;28;20099;-73
2022/07/09 09:03:42;;;;;;;4.03;0.73;;;26.10;65.10;;;;;;5010083;28;20030;-73
2022/07/09 09:06:09;;;;;;;2.03;0.82;;;26.20;64.70;;;;;;5009473;28;20033;-73
2022/07/09 09:08:37;;;;;;;1.55;0.63;;;26.30;64.10;;;;;;5007066;28;21064;-72
2022/07/09 09:11:22;;;;;;;2.03;0.80;;;26.40;64.30;;;;;;5008920;28;20034;-72
2022/07/09 09:13:49;;;;;;;7.32;1.25;;;26.50;64.70;;;;;;5008368;28;20042;-72
2022/07/09 09:16:16;;;;;;;2.15;0.77;;;26.50;64.00;;;;;;5009104;28;20088;-74
2022/07/09 09:18:44;;;;;;;1.05;0.60;;;26.40;65.90;;;;;;5010694;28;20040;-73
2022/07/09 09:21:11;;;;;;;3.63;0.98;;;26.50;64.60;;;;;;5007509;28;20037;-73
2022/07/09 09:23:55;;;;;;;1.40;0.73;;;26.40;63.40;;;;;;5006508;28;20073;-72
2022/07/09 09:26:26;;;;;;;3.03;0.80;;;26.10;63.80;;;;;;5009192;28;20026;-73
2022/07/09 09:28:55;;;;;;;2.33;0.80;;;26.70;64.40;;;;;;5007576;28;20392;-73
2022/07/09 09:31:29;;;;;;;2.63;0.80;;;26.50;63.40;;;;;;5010856;28;20498;-72
2022/07/09 09:33:58;;;;;;;1.60;0.80;;;27.00;64.70;;;;;;5008656;28;20040;-74
2022/07/09 09:36:32;;;;;;;8.57;2.00;;;27.30;63.30;;;;;;5008919;28;20045;-74
2022/07/09 09:39:16;;;;;;;2.35;0.77;;;27.50;65.00;;;;;;5009600;28;20034;-73
2022/07/09 09:41:44;;;;;;;1.73;0.70;;;27.40;63.20;;;;;;5007926;28;20038;-72
2022/07/09 09:44:12;;;;;;;1.63;0.80;;;27.50;62.90;;;;;;5008650;28;20455;-72
2022/07/09 09:46:39;;;;;;;2.60;0.85;;;27.70;63.50;;;;;;5009130;28;20068;-73
2022/07/09 09:49:07;;;;;;;1.23;0.63;;;28.30;63.60;;;;;;5005820;28;20502;-73
2022/07/09 09:51:36;;;;;;;3.50;1.27;;;27.80;62.00;;;;;;5008224;28;20484;-73
2022/07/09 09:54:04;;;;;;;2.45;0.80;;;28.00;63.70;;;;;;5007424;28;20042;-73
2022/07/09 09:56:31;;;;;;;3.03;0.95;;;27.90;64.30;;;;;;5009886;28;20038;-73
2022/07/09 09:58:59;;;;;;;2.83;0.85;;;28.10;62.70;;;;;;5009381;28;20393;-74
2022/07/09 10:01:25;;;;;;;1.42;0.50;;;27.80;63.30;;;;;;5010315;28;20067;-74
2022/07/09 10:03:52;;;;;;;0.82;0.50;;;28.00;62.40;;;;;;5011134;28;20030;-75
2022/07/09 10:06:18;;;;;;;4.85;1.02;;;28.10;61.80;;;;;;5009740;28;20029;-74
2022/07/09 10:08:43;;;;;;;5.50;1.00;;;28.00;63.10;;;;;;5005387;28;20634;-74
2022/07/09 10:11:09;;;;;;;5.65;1.05;;;28.30;63.10;;;;;;5009178;28;20036;-74
2022/07/09 10:13:38;;;;;;;1.58;0.77;;;28.60;63.60;;;;;;5007984;28;20121;-75
2022/07/09 10:16:04;;;;;;;1.67;0.73;;;28.70;62.90;;;;;;5006890;28;20045;-76
2022/07/09 10:18:29;;;;;;;1.10;0.50;;;29.10;61.90;;;;;;5006135;28;20034;-75
2022/07/09 10:20:56;;;;;;;1.48;0.70;;;29.10;62.70;;;;;;5009364;28;20477;-76
2022/07/09 10:23:24;;;;;;;1.33;0.63;;;28.90;62.80;;;;;;5008785;28;20075;-73
2022/07/09 10:25:52;;;;;;;1.73;0.60;;;29.10;60.90;;;;;;5005330;28;20164;-73
2022/07/09 10:28:19;;;;;;;2.00;0.60;;;28.80;60.40;;;;;;5009796;28;20045;-75
2022/07/09 10:30:46;;;;;;;1.05;0.50;;;28.80;62.00;;;;;;5007547;28;20044;-75
2022/07/09 10:33:13;;;;;;;0.98;0.47;;;28.70;60.90;;;;;;5001709;28;20042;-75
2022/07/09 10:35:47;;;;;;;1.00;0.40;;;29.00;61.30;;;;;;4996121;28;20030;-75
2022/07/09 10:38:14;;;;;;;0.88;0.40;;;29.50;60.90;;;;;;5002755;28;20025;-75
2022/07/09 10:40:41;;;;;;;2.40;0.75;;;29.40;62.00;;;;;;4999623;28;20034;-76
2022/07/09 10:43:07;;;;;;;2.03;0.90;;;29.00;60.50;;;;;;5005465;28;20033;-73
2022/07/09 10:45:44;;;;;;;0.68;0.32;;;29.00;60.90;;;;;;5000631;28;20034;-74
2022/07/09 10:48:11;;;;;;;1.17;0.47;;;29.00;60.90;;;;;;5004491;28;20045;-77
2022/07/09 10:50:40;;;;;;;2.05;0.60;;;29.00;60.00;;;;;;5001668;28;20033;-73
2022/07/09 10:53:06;;;;;;;2.95;0.90;;;28.70;59.30;;;;;;5004087;28;20121;-73
2022/07/09 10:55:33;;;;;;;0.82;0.40;;;28.80;60.30;;;;;;5003130;28;20053;-78
2022/07/09 10:57:59;;;;;;;1.45;0.68;;;29.30;62.20;;;;;;5004608;28;20034;-74
2022/07/09 11:00:27;;;;;;;1.58;0.70;;;29.40;61.70;;;;;;5004521;28;20037;-75
2022/07/09 11:02:58;;;;;;;2.30;0.47;;;29.30;58.80;;;;;;5008377;28;20030;-76
2022/07/09 11:05:28;;;;;;;1.58;0.70;;;29.30;60.70;;;;;;5006372;28;20044;-75
2022/07/09 11:08:05;;;;;;;1.52;0.50;;;29.50;60.50;;;;;;5005858;28;20034;-76
2022/07/09 11:10:32;;;;;;;0.82;0.35;;;29.00;60.20;;;;;;5005068;28;20034;-77
2022/07/09 11:13:00;;;;;;;5.22;0.88;;;29.20;59.70;;;;;;5007440;28;20049;-74
2022/07/09 11:15:28;;;;;;;0.68;0.30;;;29.20;59.50;;;;;;5006384;28;20531;-74
2022/07/09 11:17:58;;;;;;;3.00;0.70;;;29.10;59.60;;;;;;5005225;28;20034;-74
2022/07/09 11:20:24;;;;;;;1.15;0.73;;;29.20;59.20;;;;;;5007598;28;20030;-72
2022/07/09 11:22:50;;;;;;;1.92;0.60;;;29.40;60.40;;;;;;4995445;28;20050;-74
2022/07/09 11:25:16;;;;;;;2.55;0.65;;;29.20;59.00;;;;;;5006628;28;20026;-73
2022/07/09 11:27:42;;;;;;;1.40;0.70;;;29.30;59.60;;;;;;5003022;28;20018;-73
2022/07/09 11:30:13;;;;;;;2.78;0.80;;;29.80;60.20;;;;;;5006095;28;20040;-72
2022/07/09 11:32:39;;;;;;;1.23;0.50;;;30.30;61.60;;;;;;5007528;28;20568;-73
2022/07/09 11:35:05;;;;;;;1.45;0.40;;;30.30;60.80;;;;;;5008202;28;20042;-74
2022/07/09 11:37:30;;;;;;;2.67;0.82;;;30.60;61.00;;;;;;5008182;28;20604;-72
2022/07/09 11:39:56;;;;;;;3.33;0.60;;;30.40;60.30;;;;;;5008098;28;20052;-73
2022/07/09 11:42:22;;;;;;;1.13;0.63;;;30.60;61.40;;;;;;5005569;28;20022;-73
2022/07/09 11:44:55;;;;;;;1.90;1.13;;;30.80;61.30;;;;;;5008049;28;20033;-73
2022/07/09 11:47:32;;;;;;;3.05;0.50;;;30.30;58.40;;;;;;5008259;28;20037;-73
2022/07/09 11:50:06;;;;;;;2.50;0.68;;;30.40;61.50;;;;;;5008010;28;20083;-73
2022/07/09 11:52:33;;;;;;;1.75;0.60;;;30.40;58.80;;;;;;5008014;28;20041;-73
2022/07/09 11:55:05;;;;;;;2.10;0.50;;;30.40;60.20;;;;;;5005669;28;20419;-73
2022/07/09 11:57:33;;;;;;;2.45;0.70;;;30.50;60.30;;;;;;5005607;28;20107;-73
2022/07/09 11:59:59;;;;;;;1.63;0.57;;;30.60;59.90;;;;;;5007941;28;20033;-73
2022/07/09 12:02:38;;;;;;;2.67;0.85;;;30.50;59.00;;;;;;5006742;28;20018;-73
2022/07/09 12:05:06;;;;;;;0.98;0.40;;;30.10;58.50;;;;;;5005922;28;20519;-73
2022/07/09 12:07:34;;;;;;;1.48;0.57;;;30.60;59.70;;;;;;5006510;28;20030;-72
2022/07/09 12:10:08;;;;;;;2.80;0.70;;;30.60;59.90;;;;;;5006668;28;20029;-73
2022/07/09 12:12:35;;;;;;;0.93;0.50;;;30.80;60.20;;;;;;5007786;28;20132;-73
2022/07/09 12:15:03;;;;;;;1.60;0.60;;;31.00;57.80;;;;;;5007024;28;20130;-72
2022/07/09 12:17:30;;;;;;;1.17;0.57;;;30.60;58.00;;;;;;5007216;28;20026;-72
2022/07/09 12:19:57;;;;;;;1.77;0.50;;;30.80;58.90;;;;;;5008465;28;20132;-72
2022/07/09 12:22:24;;;;;;;1.58;0.70;;;31.00;59.30;;;;;;5007605;28;20049;-73
2022/07/09 12:24:51;;;;;;;2.42;0.40;;;31.00;58.00;;;;;;5007578;28;20063;-72
2022/07/09 12:27:17;;;;;;;1.35;0.57;;;30.50;56.60;;;;;;5006074;28;20423;-73
2022/07/09 12:29:43;;;;;;;1.40;0.82;;;30.40;57.50;;;;;;5022650;28;20025;-73
2022/07/09 12:32:08;;;;;;;2.05;0.75;;;30.70;58.60;;;;;;5011134;28;20061;-73
2022/07/09 12:34:34;;;;;;;2.83;0.55;;;30.60;56.90;;;;;;5005259;28;20041;-73
2022/07/09 12:37:00;;;;;;;1.38;0.47;;;30.60;57.90;;;;;;5006008;28;20048;-73
2022/07/09 12:39:26;;;;;;;1.73;0.63;;;31.30;58.80;;;;;;5002525;28;20030;-73
2022/07/09 12:41:52;;;;;;;1.45;0.68;;;31.70;58.40;;;;;;5006935;28;20041;-73
2022/07/09 12:44:17;;;;;;;1.95;0.50;;;31.30;57.80;;;;;;5006568;28;20104;-73